createdAt,value
2018-10-09T00:01:41.254Z,42.58
2018-10-09T00:04:09.575Z,38.78
2018-10-09T00:06:37.874Z,39.63
2018-10-09T00:09:07.334Z,42.55
2018-10-09T00:11:35.670Z,44.63
2018-10-09T00:14:04.126Z,42.58
2018-10-09T00:16:32.425Z,39.58
2018-10-09T00:19:00.743Z,50.45
2018-10-09T00:21:29.306Z,47.67
2018-10-09T00:23:57.638Z,48.85
2018-10-09T00:26:26.034Z,45.75
2018-10-09T00:28:54.422Z,44.03
2018-10-09T00:31:22.766Z,41.92
2018-10-09T00:33:51.040Z,39.15
2018-10-09T00:36:19.333Z,38.13
2018-10-09T00:38:47.617Z,39.30
2018-10-09T00:41:15.937Z,39.25
2018-10-09T00:43:44.233Z,38.90
2018-10-09T00:46:12.541Z,40.70
2018-10-09T00:48:40.985Z,42.78
2018-10-09T00:51:09.297Z,46.00
2018-10-09T00:53:38.381Z,48.35
2018-10-09T00:56:06.869Z,49.63
2018-10-09T00:58:35.209Z,44.60
2018-10-09T01:01:03.522Z,42.70
2018-10-09T01:03:31.818Z,38.65
2018-10-09T01:06:00.117Z,39.92
2018-10-09T01:08:28.397Z,34.83
2018-10-09T01:10:56.694Z,36.00
2018-10-09T01:13:24.971Z,36.75
2018-10-09T01:15:53.262Z,38.00
2018-10-09T01:18:21.538Z,38.20
2018-10-09T01:20:49.921Z,39.42
2018-10-09T01:23:18.194Z,32.78
2018-10-09T01:25:46.501Z,51.20
2018-10-09T01:28:14.781Z,36.85
2018-10-09T01:30:43.074Z,43.48
2018-10-09T01:33:11.341Z,31.97
2018-10-09T01:35:39.646Z,38.40
2018-10-09T01:38:07.941Z,39.33
2018-10-09T01:40:36.242Z,38.75
2018-10-09T01:43:04.634Z,39.18
2018-10-09T01:45:33.026Z,40.67
2018-10-09T01:48:01.299Z,38.08
2018-10-09T01:50:29.597Z,38.17
2018-10-09T01:52:57.870Z,35.20
2018-10-09T01:55:26.161Z,34.63
2018-10-09T01:57:54.436Z,32.23
2018-10-09T02:00:22.733Z,34.00
2018-10-09T02:02:51.028Z,36.45
2018-10-09T02:05:19.293Z,33.88
2018-10-09T02:07:47.591Z,40.52
2018-10-09T02:10:15.866Z,38.35
2018-10-09T02:12:44.203Z,38.95
2018-10-09T02:15:12.483Z,38.38
2018-10-09T02:17:40.798Z,38.53
2018-10-09T02:20:09.073Z,40.88
2018-10-09T02:22:37.470Z,33.98
2018-10-09T02:25:05.754Z,39.73
2018-10-09T02:27:34.062Z,34.60
2018-10-09T02:30:02.343Z,37.40
2018-10-09T02:32:30.637Z,34.08
2018-10-09T02:34:58.931Z,32.28
2018-10-09T02:37:27.238Z,31.70
2018-10-09T02:39:55.576Z,39.73
2018-10-09T02:42:23.869Z,32.93
2018-10-09T02:44:52.174Z,36.98
2018-10-09T02:47:20.469Z,33.73
2018-10-09T02:49:48.740Z,32.42
2018-10-09T02:52:17.042Z,34.43
2018-10-09T02:54:45.313Z,39.50
2018-10-09T02:57:13.605Z,33.25
2018-10-09T02:59:41.909Z,32.88
2018-10-09T03:02:10.210Z,33.48
2018-10-09T03:04:38.486Z,36.38
2018-10-09T03:07:06.785Z,31.93
2018-10-09T03:09:35.062Z,34.43
2018-10-09T03:12:03.349Z,34.45
2018-10-09T03:14:31.626Z,33.88
2018-10-09T03:17:00.014Z,39.25
2018-10-09T03:19:28.289Z,32.73
2018-10-09T03:21:56.590Z,38.15
2018-10-09T03:24:24.877Z,39.80
2018-10-09T03:26:53.174Z,48.48
2018-10-09T03:29:21.452Z,47.17
2018-10-09T03:31:49.756Z,38.95
2018-10-09T03:34:18.134Z,41.28
2018-10-09T03:36:46.443Z,43.85
2018-10-09T03:39:14.726Z,56.08
2018-10-09T03:41:43.022Z,36.17
2018-10-09T03:44:11.325Z,36.03
2018-10-09T03:46:39.617Z,33.92
2018-10-09T03:49:07.889Z,41.48
2018-10-09T03:51:36.199Z,36.65
2018-10-09T03:54:04.555Z,35.33
2018-10-09T03:56:32.850Z,39.63
2018-10-09T03:59:01.178Z,39.60
2018-10-09T04:01:29.473Z,45.33
2018-10-09T04:03:58.174Z,38.98
2018-10-09T04:06:26.680Z,41.83
2018-10-09T04:08:54.969Z,47.67
2018-10-09T04:11:23.317Z,48.75
2018-10-09T04:13:51.626Z,58.95
2018-10-09T04:16:19.901Z,51.40
2018-10-09T04:18:48.201Z,50.78
2018-10-09T04:21:16.473Z,42.90
2018-10-09T04:23:44.770Z,41.45
2018-10-09T04:26:13.046Z,41.92
2018-10-09T04:28:41.338Z,43.35
2018-10-09T04:31:09.607Z,33.25
2018-10-09T04:33:37.914Z,39.95
2018-10-09T04:36:06.186Z,34.98
2018-10-09T04:38:34.477Z,36.03
2018-10-09T04:41:02.763Z,35.85
2018-10-09T04:43:31.085Z,34.78
2018-10-09T04:45:59.366Z,36.33
2018-10-09T04:48:27.657Z,38.38
2018-10-09T04:50:55.942Z,33.85
2018-10-09T04:53:24.253Z,34.30
2018-10-09T04:55:52.535Z,35.15
2018-10-09T04:58:20.905Z,39.63
2018-10-09T05:00:49.341Z,33.38
2018-10-09T05:03:17.590Z,38.48
2018-10-09T05:05:45.881Z,34.80
2018-10-09T05:08:14.248Z,35.28
2018-10-09T05:10:42.526Z,42.20
2018-10-09T05:13:10.978Z,36.13
2018-10-09T05:15:39.278Z,40.52
2018-10-09T05:18:07.580Z,40.80
2018-10-09T05:20:35.857Z,50.17
2018-10-09T05:23:04.229Z,43.08
2018-10-09T05:25:32.477Z,41.55
2018-10-09T05:28:00.774Z,48.68
2018-10-09T05:30:29.066Z,38.45
2018-10-09T05:32:57.367Z,37.25
2018-10-09T05:35:25.645Z,38.83
2018-10-09T05:37:53.955Z,38.05
2018-10-09T05:40:22.248Z,37.67
2018-10-09T05:42:50.538Z,37.28
2018-10-09T05:45:18.853Z,34.08
2018-10-09T05:47:47.154Z,34.80
2018-10-09T05:50:15.430Z,32.75
2018-10-09T05:52:43.768Z,36.28
2018-10-09T05:55:12.022Z,33.33
2018-10-09T05:57:40.330Z,33.28
2018-10-09T06:00:09.299Z,41.40
2018-10-09T06:02:37.646Z,37.58
2018-10-09T06:05:05.957Z,37.45
2018-10-09T06:07:35.117Z,35.45
2018-10-09T06:10:03.432Z,44.85
2018-10-09T06:12:31.867Z,46.45
2018-10-09T06:15:00.285Z,46.85
2018-10-09T06:17:28.578Z,60.95
2018-10-09T06:19:56.862Z,63.23
2018-10-09T06:22:25.169Z,50.20
2018-10-09T06:24:53.442Z,46.48
2018-10-09T06:27:21.841Z,49.42
2018-10-09T06:29:50.154Z,54.38
2018-10-09T06:32:18.433Z,58.40
2018-10-09T06:34:46.721Z,56.73
2018-10-09T06:37:15.292Z,68.92
2018-10-09T06:39:43.606Z,65.28
2018-10-09T06:42:11.906Z,62.62
2018-10-09T06:44:40.222Z,61.95
2018-10-09T06:47:08.509Z,69.75
2018-10-09T06:49:36.810Z,63.68
2018-10-09T06:52:05.093Z,57.03
2018-10-09T06:54:33.462Z,58.55
2018-10-09T06:57:01.904Z,62.48
2018-10-09T06:59:30.215Z,61.83
2018-10-09T07:01:58.503Z,53.33
2018-10-09T07:04:26.806Z,55.35
2018-10-09T07:06:55.086Z,52.80
2018-10-09T07:09:23.392Z,57.60
2018-10-09T07:11:51.710Z,52.60
2018-10-09T07:14:20.014Z,50.33
2018-10-09T07:16:48.323Z,47.40
2018-10-09T07:19:16.626Z,50.35
2018-10-09T07:21:44.911Z,60.52
2018-10-09T07:24:13.222Z,49.40
2018-10-09T07:26:41.510Z,51.13
2018-10-09T07:29:09.816Z,61.95
2018-10-09T07:31:38.363Z,57.67
2018-10-09T07:34:06.783Z,65.08
2018-10-09T07:36:35.074Z,62.75
2018-10-09T07:39:03.404Z,56.98
2018-10-09T07:41:31.690Z,57.10
2018-10-09T07:44:00.122Z,60.20
2018-10-09T07:46:30.046Z,57.10
2018-10-09T07:48:58.871Z,54.93
2018-10-09T07:51:27.198Z,60.73
2018-10-09T07:53:56.358Z,57.33
2018-10-09T07:56:24.679Z,59.63
2018-10-09T07:58:53.251Z,62.98
2018-10-09T08:01:21.567Z,59.33
2018-10-09T08:03:49.943Z,60.17
2018-10-09T08:06:18.406Z,64.17
2018-10-09T08:08:46.718Z,69.50
2018-10-09T08:11:15.014Z,59.63
2018-10-09T08:13:43.398Z,68.93
2018-10-09T08:16:11.889Z,53.30
2018-10-09T08:18:40.203Z,56.00
2018-10-09T08:21:08.624Z,41.47
2018-10-09T08:23:36.942Z,47.87
2018-10-09T08:26:05.250Z,46.97
2018-10-09T08:28:33.582Z,42.37
2018-10-09T08:31:01.962Z,46.83
2018-10-09T08:33:30.270Z,29.60
2018-10-09T08:35:58.555Z,42.83
2018-10-09T08:38:26.870Z,49.10
2018-10-09T08:40:55.154Z,48.73
2018-10-09T08:43:23.479Z,43.67
2018-10-09T08:45:51.785Z,51.93
2018-10-09T08:48:20.074Z,42.87
2018-10-09T08:50:48.391Z,46.93
2018-10-09T08:53:16.807Z,45.13
2018-10-09T08:55:45.118Z,40.60
2018-10-09T08:58:13.407Z,42.47
2018-10-09T09:00:41.730Z,42.87
2018-10-09T09:03:10.023Z,39.43
2018-10-09T09:05:38.335Z,38.17
2018-10-09T09:08:06.656Z,44.90
2018-10-09T09:10:34.971Z,43.67
2018-10-09T09:13:03.287Z,46.17
2018-10-09T09:15:31.604Z,34.60
2018-10-09T09:17:59.898Z,20.93
2018-10-09T09:20:28.312Z,14.33
2018-10-09T09:22:56.556Z,19.03
2018-10-09T09:25:24.853Z,41.43
2018-10-09T09:27:53.227Z,34.03
2018-10-09T09:30:21.482Z,41.03
2018-10-09T09:32:49.784Z,36.53
2018-10-09T09:35:18.090Z,34.50
2018-10-09T09:37:46.382Z,26.60
2018-10-09T09:40:14.697Z,38.93
2018-10-09T09:42:42.995Z,40.03
2018-10-09T09:45:11.330Z,33.90
2018-10-09T09:47:39.628Z,35.80
2018-10-09T09:50:07.978Z,32.30
2018-10-09T09:52:36.261Z,28.63
2018-10-09T09:55:04.602Z,27.03
2018-10-09T09:57:32.887Z,26.80
2018-10-09T10:00:01.195Z,18.83
2018-10-09T10:02:29.498Z,19.33
2018-10-09T10:04:57.807Z,23.43
2018-10-09T10:07:26.119Z,16.63
2018-10-09T10:09:54.461Z,25.40
2018-10-09T10:12:22.738Z,19.63
2018-10-09T10:14:51.029Z,12.13
2018-10-09T10:17:19.307Z,15.20
2018-10-09T10:19:47.614Z,14.60
2018-10-09T10:22:15.902Z,20.53
2018-10-09T10:24:44.219Z,11.33
2018-10-09T10:27:12.494Z,9.53
2018-10-09T10:29:40.798Z,9.70
2018-10-09T10:32:09.090Z,10.80
2018-10-09T10:34:37.394Z,11.07
2018-10-09T10:37:05.803Z,11.97
2018-10-09T10:39:34.122Z,14.10
2018-10-09T10:42:02.443Z,12.17
2018-10-09T10:44:30.783Z,8.50
2018-10-09T10:46:59.058Z,13.13
2018-10-09T10:49:29.418Z,12.63
2018-10-09T10:52:03.234Z,13.63
2018-10-09T10:54:33.287Z,14.80
2018-10-09T10:57:02.997Z,13.10
2018-10-09T10:59:31.334Z,14.33
2018-10-09T11:01:59.640Z,22.10
2018-10-09T11:04:29.169Z,16.43
2018-10-09T11:06:58.926Z,15.40
2018-10-09T11:09:28.032Z,18.57
2018-10-09T11:11:56.418Z,18.13
2018-10-09T11:14:24.702Z,17.00
2018-10-09T11:16:53.010Z,18.77
2018-10-09T11:19:21.301Z,14.50
2018-10-09T11:21:49.606Z,14.77
2018-10-09T11:24:17.882Z,19.57
2018-10-09T11:26:46.191Z,17.57
2018-10-09T11:29:14.466Z,16.83
2018-10-09T11:31:43.456Z,17.43
2018-10-09T11:34:11.766Z,19.60
2018-10-09T11:36:40.086Z,16.93
2018-10-09T11:39:08.769Z,17.97
2018-10-09T11:41:37.078Z,19.93
2018-10-09T11:44:06.656Z,25.53
2018-10-09T11:46:36.114Z,14.93
2018-10-09T11:49:04.432Z,10.90
2018-10-09T11:51:32.745Z,16.40
2018-10-09T11:54:01.032Z,9.57
2018-10-09T11:56:29.371Z,10.27
2018-10-09T11:58:57.712Z,12.00
2018-10-09T12:01:25.983Z,11.17
2018-10-09T12:03:54.276Z,16.07
2018-10-09T12:06:22.820Z,13.97
2018-10-09T12:08:51.135Z,22.33
2018-10-09T12:11:19.453Z,17.50
2018-10-09T12:13:47.752Z,16.33
2018-10-09T12:16:16.044Z,9.83
2018-10-09T12:18:44.336Z,10.83
2018-10-09T12:21:12.628Z,16.27
2018-10-09T12:23:40.904Z,10.70
2018-10-09T12:26:09.310Z,10.10
2018-10-09T12:28:37.603Z,10.63
2018-10-09T12:31:05.955Z,18.53
2018-10-09T12:33:34.239Z,10.43
2018-10-09T12:36:02.606Z,5.97
2018-10-09T12:38:31.022Z,13.27
2018-10-09T12:40:59.214Z,10.10
2018-10-09T12:43:27.530Z,8.37
2018-10-09T12:45:55.822Z,8.80
2018-10-09T12:48:24.160Z,19.73
2018-10-09T12:50:52.423Z,10.40
2018-10-09T12:53:20.708Z,6.50
2018-10-09T12:55:49.026Z,7.70
2018-10-09T12:58:17.302Z,9.70
2018-10-09T13:00:45.602Z,8.70
2018-10-09T13:03:13.954Z,8.03
2018-10-09T13:05:42.219Z,8.93
2018-10-09T13:08:10.498Z,8.23
2018-10-09T13:10:38.809Z,7.80
2018-10-09T13:13:07.094Z,9.50
2018-10-09T13:15:35.370Z,8.70
2018-10-09T13:18:03.685Z,10.53
2018-10-09T13:20:31.977Z,13.83
2018-10-09T13:23:00.362Z,15.90
2018-10-09T13:25:28.740Z,21.47
2018-10-09T13:27:57.143Z,16.10
2018-10-09T13:30:25.426Z,29.60
2018-10-09T13:32:53.730Z,30.80
2018-10-09T13:35:22.055Z,33.90
2018-10-09T13:37:50.442Z,26.73
2018-10-09T13:40:18.726Z,30.50
2018-10-09T13:42:47.032Z,27.47
2018-10-09T13:45:15.337Z,27.00
2018-10-09T13:47:43.738Z,26.10
2018-10-09T13:50:11.960Z,24.07
2018-10-09T13:52:40.278Z,31.83
2018-10-09T13:55:08.580Z,32.13
2018-10-09T13:57:37.197Z,27.83
2018-10-09T14:00:05.539Z,17.93
2018-10-09T14:02:33.852Z,11.10
2018-10-09T14:05:02.142Z,29.13
2018-10-09T14:07:30.446Z,18.67
2018-10-09T14:09:58.733Z,10.90
2018-10-09T14:12:27.047Z,20.27
2018-10-09T14:14:55.345Z,9.57
2018-10-09T14:17:23.658Z,9.63
2018-10-09T14:19:51.938Z,8.70
2018-10-09T14:22:20.351Z,27.10
2018-10-09T14:24:48.541Z,11.53
2018-10-09T14:27:16.849Z,11.03
2018-10-09T14:29:45.142Z,14.73
2018-10-09T14:32:13.674Z,21.57
2018-10-09T14:34:41.999Z,9.80
2018-10-09T14:37:10.293Z,20.07
2018-10-09T14:39:38.574Z,8.37
2018-10-09T14:42:07.586Z,8.83
2018-10-09T14:44:35.893Z,18.90
2018-10-09T14:47:04.202Z,11.07
2018-10-09T14:49:32.494Z,7.00
2018-10-09T14:52:00.793Z,11.30
2018-10-09T14:54:29.066Z,9.30
2018-10-09T14:56:57.372Z,8.23
2018-10-09T14:59:25.694Z,13.47
2018-10-09T15:01:53.994Z,16.17
2018-10-09T15:04:22.274Z,11.00
2018-10-09T15:06:50.587Z,23.13
2018-10-09T15:09:18.865Z,9.37
2018-10-09T15:11:47.170Z,26.97
2018-10-09T15:14:15.458Z,12.67
2018-10-09T15:16:43.868Z,11.33
2018-10-09T15:19:12.146Z,27.97
2018-10-09T15:21:40.466Z,29.33
2018-10-09T15:24:08.770Z,31.13
2018-10-09T15:26:37.055Z,10.27
2018-10-09T15:29:05.397Z,11.63
2018-10-09T15:31:33.766Z,16.27
2018-10-09T15:34:02.158Z,9.00
2018-10-09T15:36:30.467Z,13.50
2018-10-09T15:38:58.777Z,9.90
2018-10-09T15:41:27.076Z,9.70
2018-10-09T15:43:55.406Z,20.70
2018-10-09T15:46:23.690Z,52.37
2018-10-09T15:48:52.003Z,41.53
2018-10-09T15:51:20.308Z,19.00
2018-10-09T15:53:48.943Z,8.60
2018-10-09T15:56:17.286Z,16.60
2018-10-09T15:58:45.626Z,12.30
2018-10-09T16:01:13.918Z,6.70
2018-10-09T16:03:42.224Z,17.53
2018-10-09T16:06:10.518Z,11.70
2018-10-09T16:08:38.817Z,6.83
2018-10-09T16:11:07.122Z,9.03
2018-10-09T16:13:35.435Z,8.83
2018-10-09T16:16:03.766Z,11.10
2018-10-09T16:18:32.075Z,8.90
2018-10-09T16:21:00.467Z,18.00
2018-10-09T16:23:28.882Z,8.80
2018-10-09T16:25:57.177Z,15.73
2018-10-09T16:28:25.491Z,10.57
2018-10-09T16:30:53.778Z,8.90
2018-10-09T16:33:22.098Z,13.00
2018-10-09T16:35:50.408Z,11.40
2018-10-09T16:38:18.714Z,11.77
2018-10-09T16:40:46.994Z,11.40
2018-10-09T16:43:15.318Z,17.97
2018-10-09T16:45:43.629Z,11.20
2018-10-09T16:48:11.936Z,21.73
2018-10-09T16:50:40.252Z,30.90
2018-10-09T16:53:08.587Z,40.93
2018-10-09T16:55:36.894Z,35.13
2018-10-09T16:58:05.212Z,38.97
2018-10-09T17:00:33.808Z,31.33
2018-10-09T17:03:02.122Z,37.07
2018-10-09T17:05:30.883Z,37.33
2018-10-09T17:07:59.645Z,65.37
2018-10-09T17:10:27.959Z,63.70
2018-10-09T17:12:56.391Z,45.10
2018-10-09T17:15:24.788Z,40.80
2018-10-09T17:17:53.096Z,37.70
2018-10-09T17:20:21.542Z,37.33
2018-10-09T17:22:49.864Z,35.20
2018-10-09T17:25:18.171Z,44.47
2018-10-09T17:27:46.487Z,28.10
2018-10-09T17:30:14.791Z,31.73
2018-10-09T17:32:43.110Z,28.87
2018-10-09T17:35:11.455Z,39.87
2018-10-09T17:37:39.729Z,52.93
2018-10-09T17:40:08.330Z,38.43
2018-10-09T17:42:43.439Z,44.73
2018-10-09T17:45:11.757Z,34.85
2018-10-09T17:47:40.054Z,40.80
2018-10-09T17:50:08.409Z,38.63
2018-10-09T17:52:36.706Z,47.43
2018-10-09T17:55:05.303Z,33.90
2018-10-09T17:57:33.604Z,42.35
2018-10-09T18:00:01.911Z,36.73
2018-10-09T18:02:30.207Z,38.98
2018-10-09T18:04:58.528Z,41.77
2018-10-09T18:07:26.842Z,38.17
2018-10-09T18:09:55.373Z,52.55
2018-10-09T18:12:23.662Z,44.83
2018-10-09T18:14:52.012Z,35.52
2018-10-09T18:17:20.397Z,42.33
2018-10-09T18:19:48.736Z,50.67
2018-10-09T18:22:17.091Z,45.33
2018-10-09T18:24:45.410Z,46.28
2018-10-09T18:27:13.698Z,45.30
2018-10-09T18:29:42.018Z,39.98
2018-10-09T18:32:10.310Z,58.50
2018-10-09T18:34:38.626Z,58.20
2018-10-09T18:37:06.958Z,67.65
2018-10-09T18:39:35.270Z,44.27
2018-10-09T18:42:03.750Z,44.50
2018-10-09T18:44:31.931Z,54.23
2018-10-09T18:47:00.230Z,57.95
2018-10-09T18:49:28.566Z,50.78
2018-10-09T18:51:56.887Z,50.08
2018-10-09T18:54:25.202Z,49.30
2018-10-09T18:56:53.502Z,57.38
2018-10-09T18:59:21.831Z,49.73
2018-10-09T19:01:50.146Z,54.73
2018-10-09T19:04:18.468Z,53.63
2018-10-09T19:06:46.771Z,48.75
2018-10-09T19:09:15.080Z,50.33
2018-10-09T19:11:43.384Z,54.58
2018-10-09T19:14:11.698Z,53.20
2018-10-09T19:16:39.990Z,49.83
2018-10-09T19:19:08.298Z,42.65
2018-10-09T19:21:36.586Z,33.73
2018-10-09T19:24:04.896Z,34.90
2018-10-09T19:26:33.187Z,42.95
2018-10-09T19:29:01.526Z,38.33
2018-10-09T19:31:29.849Z,49.15
2018-10-09T19:33:58.178Z,46.95
2018-10-09T19:36:26.474Z,52.48
2018-10-09T19:38:54.786Z,46.28
2018-10-09T19:41:23.080Z,44.40
2018-10-09T19:43:51.450Z,43.15
2018-10-09T19:46:19.746Z,47.25
2018-10-09T19:48:48.053Z,51.13
2018-10-09T19:51:16.395Z,40.70
2018-10-09T19:53:44.722Z,49.33
2018-10-09T19:56:13.027Z,53.02
2018-10-09T19:58:41.355Z,55.38
2018-10-09T20:01:09.702Z,52.98
2018-10-09T20:03:38.003Z,49.25
2018-10-09T20:06:06.348Z,60.55
2018-10-09T20:08:34.627Z,56.50
2018-10-09T20:11:02.938Z,50.95
2018-10-09T20:13:31.255Z,48.35
2018-10-09T20:15:59.559Z,54.53
2018-10-09T20:18:27.837Z,52.13
2018-10-09T20:20:56.399Z,46.50
2018-10-09T20:23:24.650Z,48.05
2018-10-09T20:25:52.948Z,41.15
2018-10-09T20:28:21.242Z,41.80
2018-10-09T20:30:49.546Z,40.65
2018-10-09T20:33:17.869Z,45.20
2018-10-09T20:35:46.187Z,39.67
2018-10-09T20:38:14.503Z,42.40
2018-10-09T20:40:42.807Z,41.15
2018-10-09T20:43:11.105Z,38.23
2018-10-09T20:45:39.435Z,42.78
2018-10-09T20:48:07.858Z,42.50
2018-10-09T20:50:36.175Z,41.18
2018-10-09T20:53:04.454Z,36.80
2018-10-09T20:55:32.767Z,38.65
2018-10-09T20:58:01.046Z,34.30
2018-10-09T21:00:35.890Z,41.10
2018-10-09T21:03:04.219Z,39.90
2018-10-09T21:05:32.540Z,44.93
2018-10-09T21:08:00.858Z,36.85
2018-10-09T21:10:29.197Z,35.45
2018-10-09T21:12:57.489Z,34.20
2018-10-09T21:15:25.842Z,34.67
2018-10-09T21:17:54.375Z,37.28
2018-10-09T21:20:22.574Z,32.70
2018-10-09T21:22:50.909Z,39.95
2018-10-09T21:25:19.207Z,38.13
2018-10-09T21:27:47.503Z,30.37
2018-10-09T21:30:15.815Z,32.35
2018-10-09T21:32:44.099Z,28.65
2018-10-09T21:35:12.409Z,31.93
2018-10-09T21:37:40.696Z,30.57
2018-10-09T21:40:09.002Z,33.65
2018-10-09T21:42:37.315Z,35.38
2018-10-09T21:45:05.703Z,29.72
2018-10-09T21:47:34.026Z,26.80
2018-10-09T21:50:02.355Z,28.65
2018-10-09T21:52:30.654Z,32.83
2018-10-09T21:54:59.004Z,30.82
2018-10-09T21:57:27.301Z,32.05
2018-10-09T21:59:55.635Z,26.20
2018-10-09T22:02:23.934Z,30.77
2018-10-09T22:04:52.268Z,27.27
2018-10-09T22:07:20.554Z,25.48
2018-10-09T22:09:48.855Z,29.15
2018-10-09T22:12:17.158Z,29.85
2018-10-09T22:14:45.450Z,25.82
2018-10-09T22:17:13.848Z,29.07
2018-10-09T22:19:42.134Z,28.90
2018-10-09T22:22:10.482Z,33.28
2018-10-09T22:24:38.766Z,27.93
2018-10-09T22:27:07.066Z,33.10
2018-10-09T22:29:35.358Z,30.95
2018-10-09T22:32:03.695Z,32.40
2018-10-09T22:34:31.986Z,28.70
2018-10-09T22:37:00.290Z,45.95
2018-10-09T22:39:28.574Z,28.67
2018-10-09T22:41:56.883Z,28.70
2018-10-09T22:44:25.182Z,33.30
2018-10-09T22:46:53.486Z,30.50
2018-10-09T22:49:21.967Z,30.88
2018-10-09T22:51:50.274Z,33.33
2018-10-09T22:54:18.549Z,40.90
2018-10-09T22:56:46.847Z,37.23
2018-10-09T22:59:15.127Z,30.92
2018-10-09T23:01:43.425Z,36.03
2018-10-09T23:04:11.844Z,31.90
2018-10-09T23:06:40.166Z,38.95
2018-10-09T23:09:10.023Z,32.40
2018-10-09T23:11:38.415Z,34.92
2018-10-09T23:14:06.774Z,34.88
2018-10-09T23:16:35.165Z,25.55
2018-10-09T23:19:03.509Z,30.70
2018-10-09T23:21:37.341Z,28.55
2018-10-09T23:24:05.639Z,29.92
2018-10-09T23:26:33.942Z,29.37
2018-10-09T23:29:02.227Z,29.10
2018-10-09T23:31:30.627Z,28.05
2018-10-09T23:33:58.902Z,33.02
2018-10-09T23:36:27.198Z,35.85
2018-10-09T23:38:55.576Z,30.88
2018-10-09T23:41:23.872Z,30.70
2018-10-09T23:43:52.165Z,28.55
2018-10-09T23:46:20.505Z,31.77
2018-10-09T23:48:48.771Z,32.40
2018-10-09T23:51:17.083Z,34.27
2018-10-09T23:53:45.374Z,33.13
2018-10-09T23:56:13.681Z,34.33
2018-10-09T23:58:41.970Z,30.82
